createdAt,value
2022-10-05T11:15:42.066Z,66.20
2022-10-05T11:18:48.745Z,66.10
2022-10-05T11:25:41.320Z,65.90
2022-10-05T11:28:39.325Z,65.70
2022-10-05T11:32:00.722Z,65.50
2022-10-05T11:38:21.607Z,65.30
2022-10-05T11:49:08.389Z,65.00
2022-10-05T11:55:44.948Z,65.00
2022-10-05T11:58:47.184Z,64.80
2022-10-05T12:12:30.772Z,64.40
2022-10-05T12:15:30.444Z,64.20
2022-10-05T12:18:44.975Z,64.10
2022-10-05T12:28:44.330Z,63.80
2022-10-05T12:31:54.801Z,63.80
2022-10-05T12:35:12.144Z,64.00
2022-10-05T12:41:45.592Z,64.10
2022-10-05T12:44:59.358Z,64.00
2022-10-05T12:51:45.117Z,63.60
2022-10-05T12:58:18.074Z,63.40
2022-10-05T13:01:37.630Z,63.40
2022-10-05T13:08:11.951Z,63.30
2022-10-05T13:14:43.357Z,63.70
2022-10-05T13:24:47.876Z,63.90
2022-10-05T13:34:36.159Z,64.10
2022-10-05T13:37:52.537Z,64.20
2022-10-05T13:40:45.136Z,64.10
2022-10-05T13:47:38.511Z,64.20
2022-10-05T14:00:48.958Z,64.20
2022-10-05T14:03:39.536Z,64.40
2022-10-05T14:06:32.626Z,64.30
2022-10-05T14:25:16.275Z,64.80
2022-10-05T14:28:03.272Z,64.70
2022-10-05T14:36:41.506Z,64.90
2022-10-05T14:49:52.218Z,64.80
2022-10-05T14:56:10.002Z,64.70
2022-10-05T14:59:28.191Z,64.80
2022-10-05T15:05:34.974Z,64.70
2022-10-05T15:12:02.501Z,64.90
2022-10-05T15:18:32.190Z,64.90
2022-10-05T15:25:36.309Z,64.90
2022-10-05T15:35:07.733Z,65.10
2022-10-05T15:41:41.405Z,65.30
2022-10-05T15:45:13.611Z,65.10
2022-10-05T16:01:30.569Z,65.60
2022-10-05T16:10:56.463Z,65.60
2022-10-05T16:13:56.431Z,65.70
2022-10-05T16:20:22.388Z,65.60
2022-10-05T16:26:54.323Z,65.60
2022-10-05T16:30:14.900Z,65.60
2022-10-05T16:33:27.739Z,65.50
2022-10-05T16:36:40.854Z,65.70
2022-10-05T16:49:40.462Z,65.50
2022-10-05T16:52:30.534Z,65.50
2022-10-05T16:58:17.945Z,65.50
2022-10-05T17:01:14.526Z,65.70
2022-10-05T17:04:22.423Z,65.60
2022-10-05T17:14:17.599Z,65.40
2022-10-05T17:34:36.912Z,65.60
2022-10-05T17:40:42.319Z,65.30
2022-10-05T17:43:45.316Z,65.40
2022-10-05T18:07:21.518Z,65.40
2022-10-05T18:10:36.660Z,65.30
2022-10-05T18:13:42.612Z,65.30
2022-10-05T18:19:31.332Z,65.30
2022-10-05T18:26:04.159Z,65.40
2022-10-05T18:29:23.485Z,65.20
2022-10-05T18:32:09.462Z,65.20
2022-10-05T18:35:09.023Z,65.40
2022-10-05T18:41:13.687Z,65.40
2022-10-05T18:44:16.373Z,65.30
2022-10-05T18:47:15.108Z,65.30
2022-10-05T18:50:24.288Z,65.30
2022-10-05T18:53:51.759Z,65.20
2022-10-05T18:56:34.513Z,65.20
2022-10-05T18:59:50.676Z,65.10
2022-10-05T19:03:01.477Z,65.30
2022-10-05T19:06:20.363Z,65.20
2022-10-05T19:09:17.828Z,65.10
2022-10-05T19:12:31.068Z,65.00
2022-10-05T19:19:12.532Z,65.10
2022-10-05T19:26:03.047Z,65.10
2022-10-05T19:39:24.371Z,65.00
2022-10-05T19:42:45.788Z,65.00
2022-10-05T19:48:41.321Z,64.90
2022-10-05T19:51:51.898Z,64.90
2022-10-05T20:00:41.435Z,65.00
2022-10-05T20:25:27.503Z,64.90
2022-10-05T20:31:07.853Z,64.60
2022-10-05T20:33:57.591Z,64.70
2022-10-05T20:51:25.362Z,64.60
2022-10-05T21:00:22.439Z,64.70
2022-10-05T21:06:21.662Z,64.80
2022-10-05T21:11:47.374Z,64.50
2022-10-05T21:14:31.626Z,64.60
2022-10-05T21:20:30.833Z,64.70
2022-10-05T21:23:20.691Z,64.50
2022-10-05T21:25:56.950Z,64.50
2022-10-05T21:31:56.335Z,64.60
2022-10-05T21:40:32.711Z,64.60
2022-10-05T21:43:31.940Z,64.50
2022-10-05T21:49:07.539Z,64.60
2022-10-05T21:51:57.576Z,64.50
2022-10-05T21:54:37.438Z,64.50
2022-10-05T21:57:40.596Z,64.70
2022-10-05T22:06:14.431Z,64.30
2022-10-05T22:14:35.024Z,64.60
2022-10-05T22:17:53.637Z,64.30
2022-10-05T22:26:16.854Z,64.30
2022-10-05T22:28:57.296Z,64.30
2022-10-05T22:34:43.925Z,64.50
2022-10-05T22:37:26.523Z,64.70
2022-10-05T22:39:58.118Z,64.60
2022-10-05T22:42:41.258Z,64.30
2022-10-05T22:45:40.054Z,64.40
2022-10-05T22:51:25.305Z,64.50
2022-10-05T22:59:55.755Z,64.60
2022-10-05T23:02:31.983Z,64.40
2022-10-05T23:05:08.346Z,64.50
2022-10-05T23:13:27.183Z,64.60
2022-10-05T23:16:21.850Z,64.60
2022-10-05T23:25:09.040Z,64.30
2022-10-05T23:27:42.384Z,64.60
2022-10-05T23:30:27.741Z,64.60
2022-10-05T23:33:01.988Z,64.60
2022-10-05T23:38:26.989Z,64.40
2022-10-05T23:41:09.630Z,64.50
2022-10-05T23:50:15.036Z,64.70
2022-10-05T23:58:40.426Z,64.50
